createdAt,value
2023-05-20T00:00:57.193Z,13.60
2023-05-20T00:03:25.813Z,13.60
2023-05-20T00:05:54.435Z,13.60
2023-05-20T00:08:22.917Z,13.60
2023-05-20T00:10:52.993Z,13.70
2023-05-20T00:13:21.468Z,13.70
2023-05-20T00:15:51.320Z,13.70
2023-05-20T00:18:19.770Z,13.80
2023-05-20T00:20:48.216Z,13.80
2023-05-20T00:23:16.746Z,13.80
2023-05-20T00:25:45.189Z,13.80
2023-05-20T00:28:13.639Z,13.80
2023-05-20T00:30:42.493Z,13.90
2023-05-20T00:33:12.712Z,13.90
2023-05-20T00:35:41.288Z,13.90
2023-05-20T00:38:09.790Z,13.90
2023-05-20T00:40:38.303Z,13.90
2023-05-20T00:43:06.811Z,13.90
2023-05-20T00:45:35.517Z,13.90
2023-05-20T00:48:05.210Z,13.90
2023-05-20T00:50:35.758Z,13.80
2023-05-20T00:53:04.856Z,13.70
2023-05-20T00:55:33.569Z,13.70
2023-05-20T00:58:02.185Z,13.70
2023-05-20T01:00:30.627Z,13.70
2023-05-20T01:02:59.251Z,13.70
2023-05-20T01:05:28.001Z,13.80
2023-05-20T01:07:58.353Z,13.70
2023-05-20T01:10:27.679Z,13.50
2023-05-20T01:12:59.626Z,13.50
2023-05-20T01:15:29.231Z,13.50
2023-05-20T01:18:01.676Z,13.60
2023-05-20T01:20:32.453Z,13.60
2023-05-20T01:23:02.681Z,13.70
2023-05-20T01:25:31.377Z,13.70
2023-05-20T01:27:59.876Z,13.60
2023-05-20T01:30:31.982Z,13.70
2023-05-20T01:33:03.547Z,13.70
2023-05-20T01:35:32.507Z,13.70
2023-05-20T01:38:02.742Z,13.70
2023-05-20T01:40:31.711Z,13.70
2023-05-20T01:43:00.557Z,13.70
2023-05-20T01:45:29.003Z,13.70
2023-05-20T01:47:57.503Z,13.70
2023-05-20T01:50:26.785Z,13.70
2023-05-20T01:52:55.374Z,13.70
2023-05-20T01:55:25.223Z,13.70
2023-05-20T01:57:53.720Z,13.70
2023-05-20T02:00:22.232Z,13.80
2023-05-20T02:02:50.740Z,13.80
2023-05-20T02:05:19.442Z,13.80
2023-05-20T02:07:47.930Z,13.80
2023-05-20T02:10:16.446Z,13.80
2023-05-20T02:12:47.909Z,13.80
2023-05-20T02:15:16.543Z,13.80
2023-05-20T02:17:45.057Z,13.70
2023-05-20T02:20:14.084Z,13.70
2023-05-20T02:22:42.574Z,13.60
2023-05-20T02:25:11.630Z,13.70
2023-05-20T02:27:40.700Z,13.70
2023-05-20T02:30:11.557Z,13.70
2023-05-20T02:32:40.125Z,13.70
2023-05-20T02:35:09.143Z,13.60
2023-05-20T02:37:39.015Z,13.70
2023-05-20T02:40:10.454Z,13.50
2023-05-20T02:42:38.916Z,13.40
2023-05-20T02:45:08.997Z,13.50
2023-05-20T02:47:38.883Z,13.50
2023-05-20T02:50:08.886Z,13.50
2023-05-20T02:52:37.377Z,13.50
2023-05-20T02:55:07.710Z,13.50
2023-05-20T02:57:38.279Z,13.60
2023-05-20T03:00:11.005Z,13.60
2023-05-20T03:02:41.187Z,13.60
2023-05-20T03:05:10.948Z,13.60
2023-05-20T03:07:39.503Z,13.60
2023-05-20T03:10:09.583Z,13.70
2023-05-20T03:12:38.125Z,13.70
2023-05-20T03:15:07.542Z,13.70
2023-05-20T03:17:36.063Z,13.70
2023-05-20T03:20:07.393Z,13.70
2023-05-20T03:22:36.242Z,13.70
2023-05-20T03:25:06.142Z,13.70
2023-05-20T03:27:36.843Z,13.70
2023-05-20T03:30:06.083Z,13.60
2023-05-20T03:32:34.558Z,13.70
2023-05-20T03:35:03.241Z,13.70
2023-05-20T03:37:33.108Z,13.70
2023-05-20T03:40:01.536Z,13.60
2023-05-20T03:42:30.032Z,13.70
2023-05-20T03:45:00.155Z,13.70
2023-05-20T03:47:28.943Z,13.70
2023-05-20T03:49:57.598Z,13.70
2023-05-20T03:52:26.082Z,13.70
2023-05-20T03:54:57.171Z,13.70
2023-05-20T03:57:26.230Z,13.70
2023-05-20T03:59:54.819Z,13.70
2023-05-20T04:02:23.473Z,13.70
2023-05-20T04:04:53.066Z,13.70
2023-05-20T04:07:21.597Z,13.60
2023-05-20T04:09:50.202Z,13.60
2023-05-20T04:12:20.868Z,13.60
2023-05-20T04:14:50.062Z,13.60
2023-05-20T04:17:18.590Z,13.60
2023-05-20T04:19:47.113Z,13.70
2023-05-20T04:22:15.548Z,13.70
2023-05-20T04:24:44.042Z,13.70
2023-05-20T04:27:12.466Z,13.80
2023-05-20T04:29:45.990Z,13.80
2023-05-20T04:32:14.766Z,13.80
2023-05-20T04:34:43.210Z,13.90
2023-05-20T04:37:11.710Z,13.90
2023-05-20T04:39:40.298Z,13.90
2023-05-20T04:42:08.770Z,13.70
2023-05-20T04:44:38.025Z,13.80
2023-05-20T04:47:08.978Z,13.90
2023-05-20T04:49:38.144Z,13.90
2023-05-20T04:52:07.325Z,14.00
2023-05-20T04:54:35.761Z,13.90
2023-05-20T04:57:04.342Z,14.00
2023-05-20T04:59:32.787Z,14.10
2023-05-20T05:02:01.297Z,14.00
2023-05-20T05:04:31.241Z,14.00
2023-05-20T05:06:59.778Z,14.00
2023-05-20T05:09:28.242Z,14.10
2023-05-20T05:11:56.668Z,14.10
2023-05-20T05:14:25.231Z,14.20
2023-05-20T05:16:55.719Z,14.20
2023-05-20T05:19:24.389Z,14.20
2023-05-20T05:21:54.406Z,14.20
2023-05-20T05:24:22.828Z,14.30
2023-05-20T05:26:54.852Z,14.30
2023-05-20T05:29:23.295Z,14.30
2023-05-20T05:31:51.818Z,14.20
2023-05-20T05:34:20.398Z,14.20
2023-05-20T05:36:48.857Z,14.30
2023-05-20T05:39:18.675Z,14.30
2023-05-20T05:41:47.128Z,14.30
2023-05-20T05:44:15.905Z,14.30
2023-05-20T05:46:44.451Z,14.30
2023-05-20T05:49:12.961Z,14.40
2023-05-20T05:51:41.501Z,14.40
2023-05-20T05:54:09.913Z,14.50
2023-05-20T05:56:39.900Z,14.50
2023-05-20T05:59:08.493Z,14.50
2023-05-20T06:01:37.498Z,14.50
2023-05-20T06:04:06.872Z,14.60
2023-05-20T06:06:35.961Z,14.60
2023-05-20T06:09:05.349Z,14.70
2023-05-20T06:11:33.859Z,14.80
2023-05-20T06:14:04.608Z,14.90
2023-05-20T06:16:33.093Z,15.10
2023-05-20T06:19:03.606Z,15.10
2023-05-20T06:21:32.712Z,15.10
2023-05-20T06:24:01.221Z,15.20
2023-05-20T06:26:29.686Z,15.20
2023-05-20T06:28:58.199Z,15.20
2023-05-20T06:31:30.071Z,15.30
2023-05-20T06:33:58.785Z,15.50
2023-05-20T06:36:28.051Z,15.70
2023-05-20T06:38:56.533Z,15.80
2023-05-20T06:41:25.014Z,15.90
2023-05-20T06:43:53.706Z,16.10
2023-05-20T06:46:22.208Z,16.10
2023-05-20T06:48:52.044Z,16.10
2023-05-20T06:51:20.493Z,16.20
2023-05-20T06:53:49.366Z,16.20
2023-05-20T06:56:17.923Z,16.10
2023-05-20T06:58:46.395Z,16.10
2023-05-20T07:01:17.235Z,16.20
2023-05-20T07:03:46.526Z,16.10
2023-05-20T07:06:16.407Z,16.10
2023-05-20T07:08:45.292Z,16.10
2023-05-20T07:11:13.723Z,16.10
2023-05-20T07:13:42.276Z,16.10
2023-05-20T07:16:10.984Z,16.10
2023-05-20T07:18:39.556Z,16.20
2023-05-20T07:21:08.066Z,16.60
2023-05-20T07:23:37.919Z,16.90
2023-05-20T07:26:06.588Z,17.20
2023-05-20T07:28:35.716Z,17.20
2023-05-20T07:31:04.257Z,17.30
2023-05-20T07:33:32.952Z,17.30
2023-05-20T07:36:01.516Z,17.30
2023-05-20T07:38:30.022Z,17.40
2023-05-20T07:41:00.075Z,17.50
2023-05-20T07:43:29.516Z,17.60
2023-05-20T07:45:58.078Z,17.90
2023-05-20T07:48:26.680Z,18.30
2023-05-20T07:50:57.287Z,18.60
2023-05-20T07:53:25.833Z,19.00
2023-05-20T07:55:54.274Z,19.40
2023-05-20T07:58:24.402Z,19.60
2023-05-20T08:00:52.881Z,19.70
2023-05-20T08:03:22.473Z,19.80
2023-05-20T08:05:51.192Z,19.80
2023-05-20T08:08:19.700Z,19.70
2023-05-20T08:10:48.245Z,19.50
2023-05-20T08:13:16.680Z,19.30
2023-05-20T08:15:48.547Z,19.40
2023-05-20T08:18:17.013Z,19.50
2023-05-20T08:20:45.537Z,19.50
2023-05-20T08:23:13.943Z,19.60
2023-05-20T08:25:42.385Z,19.60
2023-05-20T08:28:10.882Z,19.80
2023-05-20T08:30:39.328Z,20.20
2023-05-20T08:33:09.296Z,20.50
2023-05-20T08:35:39.591Z,20.60
2023-05-20T08:38:08.104Z,20.60
2023-05-20T08:40:36.651Z,20.70
2023-05-20T08:43:06.024Z,20.70
2023-05-20T08:45:36.053Z,20.70
2023-05-20T08:48:06.024Z,20.70
2023-05-20T08:50:35.949Z,20.70
2023-05-20T08:53:04.591Z,20.70
2023-05-20T08:55:38.959Z,20.60
2023-05-20T08:58:07.403Z,20.50
2023-05-20T09:00:35.862Z,20.40
2023-05-20T09:03:04.504Z,20.20
2023-05-20T09:05:36.066Z,20.10
2023-05-20T09:08:11.326Z,20.20
2023-05-20T09:10:41.288Z,20.10
2023-05-20T09:13:10.803Z,20.10
2023-05-20T09:15:39.408Z,20.20
2023-05-20T09:18:09.083Z,20.20
2023-05-20T09:20:40.352Z,20.30
2023-05-20T09:23:11.268Z,20.40
2023-05-20T09:25:39.774Z,20.50
2023-05-20T09:28:09.300Z,20.70
2023-05-20T09:30:37.914Z,20.80
2023-05-20T09:33:07.811Z,21.00
2023-05-20T09:35:38.179Z,21.10
2023-05-20T09:38:07.709Z,21.20
2023-05-20T09:40:40.340Z,21.40
2023-05-20T09:43:11.132Z,21.50
2023-05-20T09:45:39.945Z,21.40
2023-05-20T09:48:10.914Z,21.40
2023-05-20T09:50:40.109Z,21.40
2023-05-20T09:53:08.918Z,21.30
2023-05-20T09:55:39.229Z,21.20
2023-05-20T09:58:08.055Z,21.10
2023-05-20T10:00:36.706Z,21.10
2023-05-20T10:03:05.895Z,21.10
2023-05-20T10:05:41.379Z,21.20
2023-05-20T10:08:26.479Z,21.30
2023-05-20T10:11:05.929Z,21.50
2023-05-20T10:13:47.906Z,21.70
2023-05-20T10:16:30.610Z,21.80
2023-05-20T10:19:06.718Z,21.70
2023-05-20T10:21:35.401Z,21.70
2023-05-20T10:24:10.994Z,21.60
2023-05-20T10:26:42.245Z,21.50
2023-05-20T10:29:17.630Z,21.40
2023-05-20T10:31:46.946Z,21.40
2023-05-20T10:34:19.303Z,21.30
2023-05-20T10:36:49.353Z,21.20
2023-05-20T10:39:18.465Z,21.20
2023-05-20T10:41:48.309Z,21.20
2023-05-20T10:44:22.247Z,21.10
2023-05-20T10:47:23.546Z,21.10
2023-05-20T10:49:52.324Z,21.10
2023-05-20T10:52:21.132Z,21.20
2023-05-20T10:54:57.310Z,21.30
2023-05-20T10:57:27.990Z,21.30
2023-05-20T10:59:57.131Z,21.40
2023-05-20T11:02:27.270Z,21.50
2023-05-20T11:05:14.614Z,21.60
2023-05-20T11:07:43.232Z,21.70
2023-05-20T11:10:12.161Z,21.70
2023-05-20T11:12:42.199Z,21.70
2023-05-20T11:15:13.162Z,21.70
2023-05-20T11:17:54.235Z,21.70
2023-05-20T11:20:23.247Z,21.80
2023-05-20T11:22:52.315Z,21.90
2023-05-20T11:25:21.487Z,21.90
2023-05-20T11:27:51.975Z,21.90
2023-05-20T11:30:20.960Z,21.90
2023-05-20T11:32:58.917Z,21.90
2023-05-20T11:35:29.016Z,21.80
2023-05-20T11:38:03.411Z,21.70
2023-05-20T11:40:46.291Z,21.60
2023-05-20T11:43:20.474Z,21.50
2023-05-20T11:45:53.712Z,21.40
2023-05-20T11:48:22.795Z,21.30
2023-05-20T11:50:51.345Z,21.30
2023-05-20T11:53:22.238Z,21.40
2023-05-20T11:55:52.139Z,21.50
2023-05-20T11:58:24.282Z,21.50
2023-05-20T12:01:01.831Z,21.40
2023-05-20T12:03:38.238Z,21.50
2023-05-20T12:06:06.967Z,21.60
2023-05-20T12:08:38.787Z,21.70
2023-05-20T12:11:07.415Z,21.80
2023-05-20T12:13:37.352Z,21.90
2023-05-20T12:16:06.834Z,22.00
2023-05-20T12:18:35.618Z,22.00
2023-05-20T12:21:04.318Z,22.00
2023-05-20T12:23:34.270Z,22.10
2023-05-20T12:26:03.043Z,22.20
2023-05-20T12:28:32.166Z,22.20
2023-05-20T12:31:02.184Z,22.30
2023-05-20T12:33:30.717Z,22.30
2023-05-20T12:35:59.264Z,22.30
2023-05-20T12:38:28.105Z,22.30
2023-05-20T12:40:56.766Z,22.30
2023-05-20T12:43:25.217Z,22.30
2023-05-20T12:45:54.000Z,22.30
2023-05-20T12:48:23.866Z,22.30
2023-05-20T12:50:55.263Z,22.20
2023-05-20T12:53:23.898Z,22.20
2023-05-20T12:55:52.405Z,22.20
2023-05-20T12:58:21.200Z,22.10
2023-05-20T13:00:50.157Z,22.00
2023-05-20T13:03:19.033Z,22.00
2023-05-20T13:05:48.973Z,21.80
2023-05-20T13:08:17.540Z,21.80
2023-05-20T13:10:46.212Z,21.70
2023-05-20T13:13:22.537Z,21.70
2023-05-20T13:15:51.111Z,21.60
2023-05-20T13:18:20.076Z,21.50
2023-05-20T13:20:50.145Z,21.50
2023-05-20T13:23:18.684Z,21.40
2023-05-20T13:25:47.233Z,21.40
2023-05-20T13:28:18.849Z,21.50
2023-05-20T13:30:47.673Z,21.50
2023-05-20T13:33:16.178Z,21.50
2023-05-20T13:35:44.766Z,21.50
2023-05-20T13:38:14.634Z,21.50
2023-05-20T13:40:43.553Z,21.50
2023-05-20T13:43:12.024Z,21.50
2023-05-20T13:45:40.647Z,21.50
2023-05-20T13:48:09.188Z,21.60
2023-05-20T13:50:37.774Z,21.60
2023-05-20T13:53:06.585Z,21.60
2023-05-20T13:55:36.835Z,21.60
2023-05-20T13:58:05.697Z,21.60
2023-05-20T14:00:34.444Z,21.70
2023-05-20T14:03:04.821Z,21.50
2023-05-20T14:05:33.583Z,21.40
2023-05-20T14:08:02.575Z,21.30
2023-05-20T14:10:31.006Z,21.20
2023-05-20T14:13:02.204Z,21.10
2023-05-20T14:15:32.571Z,21.00
2023-05-20T14:18:01.349Z,20.90
2023-05-20T14:20:29.856Z,20.90
2023-05-20T14:23:00.676Z,20.80
2023-05-20T14:25:29.520Z,20.80
2023-05-20T14:27:57.998Z,20.80
2023-05-20T14:30:28.150Z,20.80
2023-05-20T14:32:56.885Z,20.80
2023-05-20T14:35:25.405Z,21.00
2023-05-20T14:37:54.502Z,21.10
2023-05-20T14:40:23.050Z,21.20
2023-05-20T14:42:51.754Z,21.20
2023-05-20T14:45:20.641Z,21.30
2023-05-20T14:47:50.697Z,21.40
2023-05-20T14:50:19.223Z,21.40
2023-05-20T14:52:47.764Z,21.40
2023-05-20T14:55:16.564Z,21.40
2023-05-20T14:57:45.105Z,21.40
2023-05-20T15:00:14.541Z,21.30
2023-05-20T15:02:43.118Z,21.30
2023-05-20T15:05:13.070Z,21.30
2023-05-20T15:07:41.664Z,21.20
2023-05-20T15:10:10.598Z,21.20
2023-05-20T15:12:39.124Z,21.20
2023-05-20T15:15:08.525Z,21.00
2023-05-20T15:17:37.113Z,21.00
2023-05-20T15:20:06.655Z,20.90
2023-05-20T15:22:36.937Z,20.70
2023-05-20T15:25:06.141Z,20.60
2023-05-20T15:27:34.794Z,20.50
2023-05-20T15:30:03.399Z,20.50
2023-05-20T15:32:32.098Z,20.50
2023-05-20T15:35:02.542Z,20.40
2023-05-20T15:37:31.320Z,20.30
2023-05-20T15:40:01.267Z,20.20
2023-05-20T15:42:29.707Z,20.20
2023-05-20T15:44:58.230Z,20.00
2023-05-20T15:47:26.778Z,20.00
2023-05-20T15:49:57.394Z,20.00
2023-05-20T15:52:26.171Z,19.90
2023-05-20T15:54:55.917Z,19.90
2023-05-20T15:57:25.909Z,19.70
2023-05-20T15:59:54.372Z,19.70
2023-05-20T16:02:23.303Z,19.70
2023-05-20T16:04:52.249Z,19.60
2023-05-20T16:07:20.803Z,19.60
2023-05-20T16:09:49.292Z,19.60
2023-05-20T16:12:18.655Z,19.60
2023-05-20T16:14:48.562Z,19.60
2023-05-20T16:17:18.981Z,19.50
2023-05-20T16:19:47.532Z,19.50
2023-05-20T16:22:16.410Z,19.40
2023-05-20T16:24:44.870Z,19.40
2023-05-20T16:27:13.391Z,19.50
2023-05-20T16:29:41.967Z,19.40
2023-05-20T16:32:11.860Z,19.40
2023-05-20T16:34:40.730Z,19.40
2023-05-20T16:37:10.212Z,19.40
2023-05-20T16:39:38.765Z,19.40
2023-05-20T16:42:08.955Z,19.30
2023-05-20T16:44:39.161Z,19.20
2023-05-20T16:47:08.137Z,19.20
2023-05-20T16:49:38.070Z,19.20
2023-05-20T16:52:07.869Z,19.20
2023-05-20T16:54:36.907Z,19.20
2023-05-20T16:57:06.576Z,19.10
2023-05-20T16:59:35.589Z,19.00
2023-05-20T17:02:04.163Z,19.00
2023-05-20T17:04:32.694Z,18.90
2023-05-20T17:07:02.733Z,18.90
2023-05-20T17:09:31.528Z,18.70
2023-05-20T17:11:59.978Z,18.70
2023-05-20T17:14:28.488Z,18.60
2023-05-20T17:16:57.101Z,18.60
2023-05-20T17:19:25.706Z,18.40
2023-05-20T17:21:54.518Z,18.30
2023-05-20T17:24:24.430Z,18.10
2023-05-20T17:26:52.890Z,18.10
2023-05-20T17:29:21.388Z,18.00
2023-05-20T17:31:49.982Z,17.60
2023-05-20T17:34:18.733Z,17.50
2023-05-20T17:36:48.663Z,17.50
2023-05-20T17:39:17.214Z,17.40
2023-05-20T17:41:47.164Z,17.40
2023-05-20T17:44:15.762Z,17.40
2023-05-20T17:46:44.360Z,17.40
2023-05-20T17:49:12.935Z,17.20
2023-05-20T17:51:42.270Z,17.20
2023-05-20T17:54:11.051Z,17.10
2023-05-20T17:56:39.702Z,17.00
2023-05-20T17:59:09.780Z,17.10
2023-05-20T18:01:38.996Z,17.20
2023-05-20T18:04:07.706Z,17.20
2023-05-20T18:06:36.519Z,17.20
2023-05-20T18:09:05.934Z,17.20
2023-05-20T18:11:35.319Z,17.10
2023-05-20T18:14:03.952Z,17.00
2023-05-20T18:16:34.205Z,17.00
2023-05-20T18:19:03.747Z,16.90
2023-05-20T18:21:32.410Z,16.80
2023-05-20T18:24:01.046Z,16.70
2023-05-20T18:26:29.553Z,16.70
2023-05-20T18:28:58.220Z,16.60
2023-05-20T18:31:27.109Z,16.50
2023-05-20T18:33:57.320Z,16.50
2023-05-20T18:36:27.458Z,16.50
2023-05-20T18:38:56.228Z,16.60
2023-05-20T18:41:29.599Z,16.50
2023-05-20T18:44:08.106Z,16.40
2023-05-20T18:46:38.993Z,16.40
2023-05-20T18:49:10.321Z,16.40
2023-05-20T18:51:38.940Z,16.40
2023-05-20T18:54:07.671Z,16.40
2023-05-20T18:56:36.591Z,16.40
2023-05-20T18:59:05.118Z,16.30
2023-05-20T19:01:33.984Z,16.30
2023-05-20T19:04:02.596Z,16.30
2023-05-20T19:06:35.273Z,16.30
2023-05-20T19:09:04.049Z,16.30
2023-05-20T19:11:32.837Z,16.30
2023-05-20T19:14:01.615Z,16.30
2023-05-20T19:16:30.814Z,16.20
2023-05-20T19:18:59.639Z,16.20
2023-05-20T19:21:30.694Z,16.20
2023-05-20T19:24:01.214Z,16.30
2023-05-20T19:26:29.729Z,16.30
2023-05-20T19:28:58.343Z,16.30
2023-05-20T19:31:27.079Z,16.40
2023-05-20T19:33:55.810Z,16.30
2023-05-20T19:36:24.528Z,16.30
2023-05-20T19:38:53.377Z,16.30
2023-05-20T19:41:23.505Z,16.30
2023-05-20T19:43:52.221Z,16.30
2023-05-20T19:46:20.829Z,16.20
2023-05-20T19:48:49.767Z,16.20
2023-05-20T19:51:18.235Z,16.00
2023-05-20T19:53:46.953Z,15.90
2023-05-20T19:56:19.367Z,15.90
2023-05-20T19:58:49.528Z,15.80
2023-05-20T20:01:18.772Z,15.70
2023-05-20T20:03:47.426Z,15.80
2023-05-20T20:06:16.166Z,15.60
2023-05-20T20:08:45.777Z,15.60
2023-05-20T20:11:15.119Z,15.60
2023-05-20T20:13:43.765Z,15.60
2023-05-20T20:16:13.672Z,15.50
2023-05-20T20:18:42.692Z,15.50
2023-05-20T20:21:11.415Z,15.50
2023-05-20T20:23:41.504Z,15.60
2023-05-20T20:26:13.686Z,15.60
2023-05-20T20:28:42.370Z,15.60
2023-05-20T20:31:10.862Z,15.50
2023-05-20T20:33:40.792Z,15.40
2023-05-20T20:36:09.967Z,15.50
2023-05-20T20:38:38.664Z,15.50
2023-05-20T20:41:09.493Z,15.60
2023-05-20T20:43:38.327Z,15.50
2023-05-20T20:46:07.307Z,15.60
2023-05-20T20:48:35.972Z,15.60
2023-05-20T20:51:06.026Z,15.60
2023-05-20T20:53:34.621Z,15.40
2023-05-20T20:56:03.363Z,15.40
2023-05-20T20:58:35.023Z,15.40
2023-05-20T21:01:04.237Z,15.30
2023-05-20T21:03:33.910Z,15.30
2023-05-20T21:06:03.072Z,15.20
2023-05-20T21:08:32.972Z,15.30
2023-05-20T21:11:01.573Z,15.30
2023-05-20T21:13:31.507Z,15.30
2023-05-20T21:16:00.317Z,15.20
2023-05-20T21:18:28.909Z,15.00
2023-05-20T21:20:57.604Z,14.90
2023-05-20T21:23:26.123Z,14.90
2023-05-20T21:25:56.118Z,14.90
2023-05-20T21:28:24.533Z,14.80
2023-05-20T21:30:52.991Z,14.80
2023-05-20T21:33:21.460Z,14.70
2023-05-20T21:35:50.093Z,14.80
2023-05-20T21:38:18.517Z,14.80
2023-05-20T21:40:46.985Z,14.80
2023-05-20T21:43:16.966Z,14.90
2023-05-20T21:45:45.776Z,14.90
2023-05-20T21:48:14.235Z,14.90
2023-05-20T21:50:42.704Z,14.80
2023-05-20T21:53:11.148Z,14.70
2023-05-20T21:55:39.768Z,14.70
2023-05-20T21:58:08.236Z,14.70
2023-05-20T22:00:38.129Z,14.70
2023-05-20T22:03:06.777Z,14.60
2023-05-20T22:05:35.579Z,14.60
2023-05-20T22:08:04.176Z,14.60
2023-05-20T22:10:33.787Z,14.70
2023-05-20T22:13:03.072Z,14.70
2023-05-20T22:15:31.862Z,14.70
2023-05-20T22:18:04.219Z,14.70
2023-05-20T22:20:34.502Z,14.70
2023-05-20T22:23:04.712Z,14.70
2023-05-20T22:25:33.518Z,14.80
2023-05-20T22:28:04.593Z,14.80
2023-05-20T22:30:33.061Z,14.80
2023-05-20T22:33:02.923Z,14.70
2023-05-20T22:35:31.410Z,14.60
2023-05-20T22:38:00.306Z,14.70
2023-05-20T22:40:28.837Z,14.70
2023-05-20T22:42:57.362Z,14.70
2023-05-20T22:45:26.440Z,14.70
2023-05-20T22:47:55.499Z,14.70
2023-05-20T22:50:26.329Z,14.50
2023-05-20T22:52:55.025Z,14.40
2023-05-20T22:55:24.344Z,14.50
2023-05-20T22:57:52.795Z,14.50
2023-05-20T23:00:21.357Z,14.50
2023-05-20T23:02:52.474Z,14.60
2023-05-20T23:05:21.104Z,14.60
2023-05-20T23:07:52.672Z,14.60
2023-05-20T23:10:21.363Z,14.60
2023-05-20T23:12:49.952Z,14.60
2023-05-20T23:15:18.706Z,14.50
2023-05-20T23:17:47.808Z,14.50
2023-05-20T23:20:18.987Z,14.40
2023-05-20T23:22:47.521Z,14.20
2023-05-20T23:25:17.603Z,14.10
2023-05-20T23:27:46.168Z,14.20
2023-05-20T23:30:14.675Z,14.20
2023-05-20T23:32:43.584Z,14.20
2023-05-20T23:35:13.249Z,14.00
2023-05-20T23:37:42.243Z,14.00
2023-05-20T23:40:11.747Z,14.00
2023-05-20T23:42:41.737Z,14.00
2023-05-20T23:45:11.800Z,14.10
2023-05-20T23:47:40.448Z,14.10
2023-05-20T23:50:09.498Z,14.00
2023-05-20T23:52:37.956Z,13.80
2023-05-20T23:55:09.115Z,13.80
2023-05-20T23:57:37.742Z,13.90
